Munson Township, Ohio
Current Conditions -  °F | °C
As of 9:45 AM on Saturday 22 Nov 2014 (Local Time) from KCGF Reporting Station
Rain Showers Rain Showers  
Wind Chill: 26°   Ceiling: 2000
Heat Index: 36°   Visibility: 2mi
Dew Point: 32°   Wind: 15mph
Humidity: 87%   Direction: 200°SSW
Pressure: 30.17"   Gusts: 23mph
Location:  41.4475°N, 81.4018°W
Report Text: KCGF 221445Z 20013G20KT 2SM SHRA BR BKN020 OVC035 02/00 A3017
Loading
Personal Weather Stations






























Interactive Weather Map New forecast layout! Learn more

10-Day Weather Forecast

Advertisements
Track Severe Weather on mobile